METAR Data
IDs: Format: Raw Decoded Include TAF

Data at: 2045 UTC 23 Sep 2018

METAR for:KHSE (Hatteras/Mitchell Fl, NC, US)
Text:KHSE 231951Z AUTO 12006KT 10SM CLR 29/22 A3008 RMK AO2 SLP186 T02940222
Temperature: 29.4°C ( 85°F)
Dewpoint: 22.2°C ( 72°F) [RH = 65%]
Pressure (altimeter):30.08 inches Hg (1018.7 mb) [Sea level pressure: 1018.6 mb]
Winds:from the ESE (120 degrees) at 7 MPH (6 knots; 3.1 m/s)
Visibility:10 or more sm (16+ km)
Ceiling:at least 12,000 feet AGL
Clouds:sky clear below 12,000 feet AGL
QC Flag:automated observation with no human augmentation
Text:KHSE 231851Z AUTO 15005KT 10SM FEW023 30/22 A3009 RMK AO2 SLP189 T03000222
Temperature: 30.0°C ( 86°F)
Dewpoint: 22.2°C ( 72°F) [RH = 63%]
Pressure (altimeter):30.09 inches Hg (1019.0 mb) [Sea level pressure: 1018.9 mb]
Winds:from the SSE (150 degrees) at 6 MPH (5 knots; 2.6 m/s)
Visibility:10 or more sm (16+ km)
Ceiling:at least 12,000 feet AGL
Clouds: few clouds at 2300 feet AGL
QC Flag:automated observation with no human augmentation
Text:KHSE 231842Z AUTO 15005KT 10SM FEW023 30/22 A3010 RMK AO2 T03000222
Temperature: 30.0°C ( 86°F)
Dewpoint: 22.2°C ( 72°F) [RH = 63%]
Pressure (altimeter):30.10 inches Hg (1019.4 mb)
Winds:from the SSE (150 degrees) at 6 MPH (5 knots; 2.6 m/s)
Visibility:10 or more sm (16+ km)
Ceiling:at least 12,000 feet AGL
Clouds: few clouds at 2300 feet AGL
QC Flag:automated observation with no human augmentation
Text:KHSE 231751Z AUTO 14005KT 10SM OVC025 31/22 A3011 RMK AO2 SLP194 T03060222 10311 20244 58007
Temperature: 30.6°C ( 87°F)
Dewpoint: 22.2°C ( 72°F) [RH = 61%]
Pressure (altimeter):30.11 inches Hg (1019.7 mb) [Sea level pressure: 1019.4 mb]
Winds:from the SE (140 degrees) at 6 MPH (5 knots; 2.6 m/s)
Visibility:10 or more sm (16+ km)
Ceiling:2500 feet AGL
Clouds: overcast cloud deck at 2500 feet AGL
QC Flag:automated observation with no human augmentation
Text:KHSE 231651Z AUTO 00000KT 10SM BKN026 BKN060 30/22 A3011 RMK AO2 SLP197 T03000217
Temperature: 30.0°C ( 86°F)
Dewpoint: 21.7°C ( 71°F) [RH = 61%]
Pressure (altimeter):30.11 inches Hg (1019.7 mb) [Sea level pressure: 1019.7 mb]
Winds:calm
Visibility:10 or more sm (16+ km)
Ceiling:2600 feet AGL
Clouds: broken clouds at 2600 feet AGL, broken clouds at 6000 feet AGL
QC Flag:automated observation with no human augmentation
Text:KHSE 231551Z AUTO 00000KT 10SM BKN021 BKN026 OVC055 29/22 A3012 RMK AO2 SLP200 T02940222
Temperature: 29.4°C ( 85°F)
Dewpoint: 22.2°C ( 72°F) [RH = 65%]
Pressure (altimeter):30.12 inches Hg (1020.1 mb) [Sea level pressure: 1020.0 mb]
Winds:calm
Visibility:10 or more sm (16+ km)
Ceiling:2100 feet AGL
Clouds: broken clouds at 2100 feet AGL, broken clouds at 2600 feet AGL, overcast cloud deck at 5500 feet AGL
QC Flag:automated observation with no human augmentation
Text:KHSE 231528Z AUTO VRB04KT 10SM BKN026 29/22 A3013 RMK AO2 T02890222
Temperature: 28.9°C ( 84°F)
Dewpoint: 22.2°C ( 72°F) [RH = 67%]
Pressure (altimeter):30.13 inches Hg (1020.4 mb)
Winds:variable direction winds at 5 MPH (4 knots; 2.1 m/s)
Visibility:10 or more sm (16+ km)
Ceiling:2600 feet AGL
Clouds: broken clouds at 2600 feet AGL
QC Flag:automated observation with no human augmentation
Text:KHSE 231451Z AUTO 15003KT 10SM FEW025 28/21 A3013 RMK AO2 SLP201 T02830211 51008
Temperature: 28.3°C ( 83°F)
Dewpoint: 21.1°C ( 70°F) [RH = 65%]
Pressure (altimeter):30.13 inches Hg (1020.4 mb) [Sea level pressure: 1020.1 mb]
Winds:from the SSE (150 degrees) at 3 MPH (3 knots; 1.5 m/s)
Visibility:10 or more sm (16+ km)
Ceiling:at least 12,000 feet AGL
Clouds: few clouds at 2500 feet AGL
QC Flag:automated observation with no human augmentation
Text:KHSE 231351Z AUTO 03004KT 10SM SCT060 27/21 A3013 RMK AO2 SLP201 T02670211
Temperature: 26.7°C ( 80°F)
Dewpoint: 21.1°C ( 70°F) [RH = 71%]
Pressure (altimeter):30.13 inches Hg (1020.4 mb) [Sea level pressure: 1020.1 mb]
Winds:from the NNE (30 degrees) at 5 MPH (4 knots; 2.1 m/s)
Visibility:10 or more sm (16+ km)
Ceiling:at least 12,000 feet AGL
Clouds: scattered clouds at 6000 feet AGL
QC Flag:automated observation with no human augmentation
Text:KHSE 231251Z AUTO VRB04KT 10SM CLR 27/21 A3011 RMK AO2 SLP196 T02670211
Temperature: 26.7°C ( 80°F)
Dewpoint: 21.1°C ( 70°F) [RH = 71%]
Pressure (altimeter):30.11 inches Hg (1019.7 mb) [Sea level pressure: 1019.6 mb]
Winds:variable direction winds at 5 MPH (4 knots; 2.1 m/s)
Visibility:10 or more sm (16+ km)
Ceiling:at least 12,000 feet AGL
Clouds:sky clear below 12,000 feet AGL
QC Flag:automated observation with no human augmentation
Text:KHSE 231151Z AUTO 07004KT 10SM BKN055 OVC080 24/21 A3010 RMK AO2 SLP193 T02390206 10261 20222 53006
Temperature: 23.9°C ( 75°F)
Dewpoint: 20.6°C ( 69°F) [RH = 82%]
Pressure (altimeter):30.10 inches Hg (1019.4 mb) [Sea level pressure: 1019.3 mb]
Winds:from the ENE (70 degrees) at 5 MPH (4 knots; 2.1 m/s)
Visibility:10 or more sm (16+ km)
Ceiling:5500 feet AGL
Clouds: broken clouds at 5500 feet AGL, overcast cloud deck at 8000 feet AGL
QC Flag:automated observation with no human augmentation
Text:KHSE 231051Z AUTO 06005KT 10SM SCT055 BKN085 23/20 A3009 RMK AO2 SLP189 T02330200
Temperature: 23.3°C ( 74°F)
Dewpoint: 20.0°C ( 68°F) [RH = 82%]
Pressure (altimeter):30.09 inches Hg (1019.0 mb) [Sea level pressure: 1018.9 mb]
Winds:from the ENE (60 degrees) at 6 MPH (5 knots; 2.6 m/s)
Visibility:10 or more sm (16+ km)
Ceiling:8500 feet AGL
Clouds: scattered clouds at 5500 feet AGL, broken clouds at 8500 feet AGL
QC Flag:automated observation with no human augmentation
Text:KHSE 230951Z AUTO 05005KT 10SM FEW036 OVC060 24/19 A3008 RMK AO2 SLP187 T02390194
Temperature: 23.9°C ( 75°F)
Dewpoint: 19.4°C ( 67°F) [RH = 76%]
Pressure (altimeter):30.08 inches Hg (1018.7 mb) [Sea level pressure: 1018.7 mb]
Winds:from the NE (50 degrees) at 6 MPH (5 knots; 2.6 m/s)
Visibility:10 or more sm (16+ km)
Ceiling:6000 feet AGL
Clouds: few clouds at 3600 feet AGL, overcast cloud deck at 6000 feet AGL
QC Flag:automated observation with no human augmentation
Text:KHSE 230851Z AUTO 13014KT 10SM SCT047 OVC055 25/20 A3008 RMK AO2 SLP187 T02500200 56003
Temperature: 25.0°C ( 77°F)
Dewpoint: 20.0°C ( 68°F) [RH = 74%]
Pressure (altimeter):30.08 inches Hg (1018.7 mb) [Sea level pressure: 1018.7 mb]
Winds:from the SE (130 degrees) at 16 MPH (14 knots; 7.2 m/s)
Visibility:10 or more sm (16+ km)
Ceiling:5500 feet AGL
Clouds: scattered clouds at 4700 feet AGL, overcast cloud deck at 5500 feet AGL
QC Flag:automated observation with no human augmentation
Text:KHSE 230751Z AUTO 15010KT 10SM FEW032 OVC065 26/21 A3009 RMK AO2 SLP187 T02610206
Temperature: 26.1°C ( 79°F)
Dewpoint: 20.6°C ( 69°F) [RH = 72%]
Pressure (altimeter):30.09 inches Hg (1019.0 mb) [Sea level pressure: 1018.7 mb]
Winds:from the SSE (150 degrees) at 12 MPH (10 knots; 5.1 m/s)
Visibility:10 or more sm (16+ km)
Ceiling:6500 feet AGL
Clouds: few clouds at 3200 feet AGL, overcast cloud deck at 6500 feet AGL
QC Flag:automated observation with no human augmentation
Text:KHSE 230651Z AUTO 17012KT 10SM FEW019 SCT037 OVC065 25/22 A3009 RMK AO2 SLP188 T02500222
Temperature: 25.0°C ( 77°F)
Dewpoint: 22.2°C ( 72°F) [RH = 84%]
Pressure (altimeter):30.09 inches Hg (1019.0 mb) [Sea level pressure: 1018.8 mb]
Winds:from the S (170 degrees) at 14 MPH (12 knots; 6.2 m/s)
Visibility:10 or more sm (16+ km)
Ceiling:6500 feet AGL
Clouds: few clouds at 1900 feet AGL, scattered clouds at 3700 feet AGL, overcast cloud deck at 6500 feet AGL
QC Flag:automated observation with no human augmentation
Text:KHSE 230551Z AUTO 00000KT 10SM FEW070 22/21 A3009 RMK AO2 SLP190 T02220206 10261 20222 58005
Temperature: 22.2°C ( 72°F)
Dewpoint: 20.6°C ( 69°F) [RH = 91%]
Pressure (altimeter):30.09 inches Hg (1019.0 mb) [Sea level pressure: 1019.0 mb]
Winds:calm
Visibility:10 or more sm (16+ km)
Ceiling:at least 12,000 feet AGL
Clouds: few clouds at 7000 feet AGL
QC Flag:automated observation with no human augmentation
Text:KHSE 230451Z AUTO 00000KT 10SM SCT070 24/21 A3011 RMK AO2 SLP194 T02440206 403060200
Temperature: 24.4°C ( 76°F)
Dewpoint: 20.6°C ( 69°F) [RH = 79%]
Pressure (altimeter):30.11 inches Hg (1019.7 mb) [Sea level pressure: 1019.4 mb]
Winds:calm
Visibility:10 or more sm (16+ km)
Ceiling:at least 12,000 feet AGL
Clouds: scattered clouds at 7000 feet AGL
QC Flag:automated observation with no human augmentation
Text:KHSE 230351Z AUTO 14006KT 10SM CLR 26/21 A3011 RMK AO2 SLP195 T02610211
Temperature: 26.1°C ( 79°F)
Dewpoint: 21.1°C ( 70°F) [RH = 74%]
Pressure (altimeter):30.11 inches Hg (1019.7 mb) [Sea level pressure: 1019.5 mb]
Winds:from the SE (140 degrees) at 7 MPH (6 knots; 3.1 m/s)
Visibility:10 or more sm (16+ km)
Ceiling:at least 12,000 feet AGL
Clouds:sky clear below 12,000 feet AGL
QC Flag:automated observation with no human augmentation
Text:KHSE 230251Z AUTO 00000KT 10SM CLR 23/21 A3011 RMK AO2 SLP195 T02280211 51007
Temperature: 22.8°C ( 73°F)
Dewpoint: 21.1°C ( 70°F) [RH = 90%]
Pressure (altimeter):30.11 inches Hg (1019.7 mb) [Sea level pressure: 1019.5 mb]
Winds:calm
Visibility:10 or more sm (16+ km)
Ceiling:at least 12,000 feet AGL
Clouds:sky clear below 12,000 feet AGL
QC Flag:automated observation with no human augmentation
Text:KHSE 230151Z AUTO 07003KT 10SM CLR 23/21 A3010 RMK AO2 SLP192 T02280211
Temperature: 22.8°C ( 73°F)
Dewpoint: 21.1°C ( 70°F) [RH = 90%]
Pressure (altimeter):30.10 inches Hg (1019.4 mb) [Sea level pressure: 1019.2 mb]
Winds:from the ENE (70 degrees) at 3 MPH (3 knots; 1.5 m/s)
Visibility:10 or more sm (16+ km)
Ceiling:at least 12,000 feet AGL
Clouds:sky clear below 12,000 feet AGL
QC Flag:automated observation with no human augmentation
Text:KHSE 230051Z AUTO 09003KT 10SM CLR 23/21 A3010 RMK AO2 SLP191 T02330211
Temperature: 23.3°C ( 74°F)
Dewpoint: 21.1°C ( 70°F) [RH = 87%]
Pressure (altimeter):30.10 inches Hg (1019.4 mb) [Sea level pressure: 1019.1 mb]
Winds:from the E (90 degrees) at 3 MPH (3 knots; 1.5 m/s)
Visibility:10 or more sm (16+ km)
Ceiling:at least 12,000 feet AGL
Clouds:sky clear below 12,000 feet AGL
QC Flag:automated observation with no human augmentation
Text:KHSE 222351Z AUTO 14005KT 10SM CLR 26/21 A3009 RMK AO2 SLP188 T02610211 10306 20261 53005
Temperature: 26.1°C ( 79°F)
Dewpoint: 21.1°C ( 70°F) [RH = 74%]
Pressure (altimeter):30.09 inches Hg (1019.0 mb) [Sea level pressure: 1018.8 mb]
Winds:from the SE (140 degrees) at 6 MPH (5 knots; 2.6 m/s)
Visibility:10 or more sm (16+ km)
Ceiling:at least 12,000 feet AGL
Clouds:sky clear below 12,000 feet AGL
QC Flag:automated observation with no human augmentation
Text:KHSE 222251Z AUTO 15005KT 10SM CLR 26/21 A3008 RMK AO2 SLP184 T02610206
Temperature: 26.1°C ( 79°F)
Dewpoint: 20.6°C ( 69°F) [RH = 72%]
Pressure (altimeter):30.08 inches Hg (1018.7 mb) [Sea level pressure: 1018.4 mb]
Winds:from the SSE (150 degrees) at 6 MPH (5 knots; 2.6 m/s)
Visibility:10 or more sm (16+ km)
Ceiling:at least 12,000 feet AGL
Clouds:sky clear below 12,000 feet AGL
QC Flag:automated observation with no human augmentation
Text:KHSE 222151Z AUTO 14007KT 10SM CLR 28/21 A3008 RMK AO2 SLP184 T02780211
Temperature: 27.8°C ( 82°F)
Dewpoint: 21.1°C ( 70°F) [RH = 67%]
Pressure (altimeter):30.08 inches Hg (1018.7 mb) [Sea level pressure: 1018.4 mb]
Winds:from the SE (140 degrees) at 8 MPH (7 knots; 3.6 m/s)
Visibility:10 or more sm (16+ km)
Ceiling:at least 12,000 feet AGL
Clouds:sky clear below 12,000 feet AGL
QC Flag:automated observation with no human augmentation
Text:KHSE 222051Z AUTO 15005KT 10SM CLR 29/21 A3007 RMK AO2 SLP182 T02890211 55008
Temperature: 28.9°C ( 84°F)
Dewpoint: 21.1°C ( 70°F) [RH = 63%]
Pressure (altimeter):30.07 inches Hg (1018.4 mb) [Sea level pressure: 1018.2 mb]
Winds:from the SSE (150 degrees) at 6 MPH (5 knots; 2.6 m/s)
Visibility:10 or more sm (16+ km)
Ceiling:at least 12,000 feet AGL
Clouds:sky clear below 12,000 feet AGL
QC Flag:automated observation with no human augmentation
Text:KHSE 221951Z AUTO 16005KT 10SM CLR 29/21 A3007 RMK AO2 SLP182 T02940211
Temperature: 29.4°C ( 85°F)
Dewpoint: 21.1°C ( 70°F) [RH = 61%]
Pressure (altimeter):30.07 inches Hg (1018.4 mb) [Sea level pressure: 1018.2 mb]
Winds:from the SSE (160 degrees) at 6 MPH (5 knots; 2.6 m/s)
Visibility:10 or more sm (16+ km)
Ceiling:at least 12,000 feet AGL
Clouds:sky clear below 12,000 feet AGL
QC Flag:automated observation with no human augmentation
Text:KHSE 221851Z AUTO 16006KT 10SM FEW031 31/21 A3008 RMK AO2 SLP185 T03060206
Temperature: 30.6°C ( 87°F)
Dewpoint: 20.6°C ( 69°F) [RH = 55%]
Pressure (altimeter):30.08 inches Hg (1018.7 mb) [Sea level pressure: 1018.5 mb]
Winds:from the SSE (160 degrees) at 7 MPH (6 knots; 3.1 m/s)
Visibility:10 or more sm (16+ km)
Ceiling:at least 12,000 feet AGL
Clouds: few clouds at 3100 feet AGL
QC Flag:automated observation with no human augmentation
Text:KHSE 221751Z AUTO VRB04KT 10SM FEW003 29/21 A3009 RMK AO2 SLP190 T02940206 10294 20233 58013
Temperature: 29.4°C ( 85°F)
Dewpoint: 20.6°C ( 69°F) [RH = 59%]
Pressure (altimeter):30.09 inches Hg (1019.0 mb) [Sea level pressure: 1019.0 mb]
Winds:variable direction winds at 5 MPH (4 knots; 2.1 m/s)
Visibility:10 or more sm (16+ km)
Ceiling:at least 12,000 feet AGL
Clouds: few clouds at 300 feet AGL
QC Flag:automated observation with no human augmentation
Text:KHSE 221651Z AUTO VRB04KT 10SM CLR 29/21 A3011 RMK AO2 SLP194 T02890206
Temperature: 28.9°C ( 84°F)
Dewpoint: 20.6°C ( 69°F) [RH = 61%]
Pressure (altimeter):30.11 inches Hg (1019.7 mb) [Sea level pressure: 1019.4 mb]
Winds:variable direction winds at 5 MPH (4 knots; 2.1 m/s)
Visibility:10 or more sm (16+ km)
Ceiling:at least 12,000 feet AGL
Clouds:sky clear below 12,000 feet AGL
QC Flag:automated observation with no human augmentation
Text:KHSE 221551Z AUTO VRB03KT 10SM CLR 28/21 A3012 RMK AO2 SLP199 T02830211
Temperature: 28.3°C ( 83°F)
Dewpoint: 21.1°C ( 70°F) [RH = 65%]
Pressure (altimeter):30.12 inches Hg (1020.1 mb) [Sea level pressure: 1019.9 mb]
Winds:variable direction winds at 3 MPH (3 knots; 1.5 m/s)
Visibility:10 or more sm (16+ km)
Ceiling:at least 12,000 feet AGL
Clouds:sky clear below 12,000 feet AGL
QC Flag:automated observation with no human augmentation
Text:KHSE 221451Z AUTO 29005KT 10SM CLR 28/21 A3013 RMK AO2 SLP203 T02830211 53002
Temperature: 28.3°C ( 83°F)
Dewpoint: 21.1°C ( 70°F) [RH = 65%]
Pressure (altimeter):30.13 inches Hg (1020.4 mb) [Sea level pressure: 1020.3 mb]
Winds:from the WNW (290 degrees) at 6 MPH (5 knots; 2.6 m/s)
Visibility:10 or more sm (16+ km)
Ceiling:at least 12,000 feet AGL
Clouds:sky clear below 12,000 feet AGL
QC Flag:automated observation with no human augmentation
Text:KHSE 221351Z AUTO VRB03KT 10SM FEW016 28/22 A3013 RMK AO2 SLP201 T02780222
Temperature: 27.8°C ( 82°F)
Dewpoint: 22.2°C ( 72°F) [RH = 72%]
Pressure (altimeter):30.13 inches Hg (1020.4 mb) [Sea level pressure: 1020.1 mb]
Winds:variable direction winds at 3 MPH (3 knots; 1.5 m/s)
Visibility:10 or more sm (16+ km)
Ceiling:at least 12,000 feet AGL
Clouds: few clouds at 1600 feet AGL
QC Flag:automated observation with no human augmentation
Text:KHSE 221251Z AUTO 00000KT 10SM FEW020 27/22 A3013 RMK AO2 SLP201 T02670217
Temperature: 26.7°C ( 80°F)
Dewpoint: 21.7°C ( 71°F) [RH = 74%]
Pressure (altimeter):30.13 inches Hg (1020.4 mb) [Sea level pressure: 1020.1 mb]
Winds:calm
Visibility:10 or more sm (16+ km)
Ceiling:at least 12,000 feet AGL
Clouds: few clouds at 2000 feet AGL
QC Flag:automated observation with no human augmentation
Text:KHSE 221151Z AUTO 00000KT 10SM CLR 23/22 A3013 RMK AO2 SLP201 T02330217 10233 20200 53008
Temperature: 23.3°C ( 74°F)
Dewpoint: 21.7°C ( 71°F) [RH = 91%]
Pressure (altimeter):30.13 inches Hg (1020.4 mb) [Sea level pressure: 1020.1 mb]
Winds:calm
Visibility:10 or more sm (16+ km)
Ceiling:at least 12,000 feet AGL
Clouds:sky clear below 12,000 feet AGL
QC Flag:automated observation with no human augmentation
Text:KHSE 221051Z AUTO 00000KT 10SM CLR 21/19 A3012 RMK AO2 SLP198 T02060194
Temperature: 20.6°C ( 69°F)
Dewpoint: 19.4°C ( 67°F) [RH = 93%]
Pressure (altimeter):30.12 inches Hg (1020.1 mb) [Sea level pressure: 1019.8 mb]
Winds:calm
Visibility:10 or more sm (16+ km)
Ceiling:at least 12,000 feet AGL
Clouds:sky clear below 12,000 feet AGL
QC Flag:automated observation with no human augmentation
Text:KHSE 220951Z AUTO 00000KT 9SM CLR 21/19 A3011 RMK AO2 SLP195 T02060189
Temperature: 20.6°C ( 69°F)
Dewpoint: 18.9°C ( 66°F) [RH = 90%]
Pressure (altimeter):30.11 inches Hg (1019.7 mb) [Sea level pressure: 1019.5 mb]
Winds:calm
Visibility: 9 sm ( 14 km)
Ceiling:at least 12,000 feet AGL
Clouds:sky clear below 12,000 feet AGL
QC Flag:automated observation with no human augmentation
Text:KHSE 220851Z AUTO 00000KT 7SM CLR 21/19 A3010 RMK AO2 SLP193 T02060194 55008
Temperature: 20.6°C ( 69°F)
Dewpoint: 19.4°C ( 67°F) [RH = 93%]
Pressure (altimeter):30.10 inches Hg (1019.4 mb) [Sea level pressure: 1019.3 mb]
Winds:calm
Visibility: 7 sm ( 11 km)
Ceiling:at least 12,000 feet AGL
Clouds:sky clear below 12,000 feet AGL
QC Flag:automated observation with no human augmentation